KDIK Airport (Dickinson - Theodore Roosevelt Rgnl) Information

FAA: DIK - ICAO: KDIK

KDIK Airport Location

State North Dakota
County Stark
City Dickinson
KDIK Airport is 5 miles south of Dickinson, ND.
Latitude 46-47-50.4000N
Longitude 102-48-06.7000W
Elevation 2,592ft

KDIK Airport METARs

METAR KDIK 181356Z AUTO 32023G34KT 6SM HZ BKN010 OVC014 01/M02 A2959 RMK AO2 PK WND 33039/1333 CIG 009V012 SLP038 T00061022
Altimeter 29.59"
Temperature 0.6°C (33.1°F)
Wind 320° at 23KT with gusts to 34KT
Clouds broken at 1,000ft overcast at 1,400ft
Visibility 6.0mi
Time observed: 2022-01-18T13:56:00Z

KDIK Airport Details

Status Operational
Activation October 1938
Ownership Public
Usage Public
Chart BILLINGS
ATC on-site No
Beacon schedule sunset-sunrise
Beacon color clear green

KDIK Airport Contacts

Owner DICKINSON ARPT AUTHORITY
Owner address 11120 42ND ST SW, DICKINSON, ND 58601-9282
Owner phone 701-483-1062
Manager HAROLD MCCONNELL
Manager address PO BOX 411, CAVALIER, ND 58220
Manager phone 701-520-8631

KDIK Airport (Dickinson - Theodore Roosevelt Rgnl) Radio Frequencies

KDIK (Airport) Radio Frequencies

UNICOM 123
Common traffic advisory frequency (CTAF) 123